createdAt,value
2017-07-17T00:01:24.886Z,11.3
2017-07-17T00:03:56.585Z,11.6
2017-07-17T00:06:28.353Z,11.2
2017-07-17T00:09:00.085Z,11.3
2017-07-17T00:11:31.844Z,11.4
2017-07-17T00:14:03.578Z,11.7
2017-07-17T00:16:35.351Z,11.6
2017-07-17T00:19:07.116Z,10.9
2017-07-17T00:21:38.862Z,11.5
2017-07-17T00:24:10.597Z,11.5
2017-07-17T00:26:42.347Z,10.5
2017-07-17T00:29:14.050Z,11.3
2017-07-17T00:31:45.806Z,11.2
2017-07-17T00:34:17.522Z,10.8
2017-07-17T00:36:49.279Z,11.4
2017-07-17T00:39:21.001Z,11.5
2017-07-17T00:41:52.754Z,11.2
2017-07-17T00:44:24.490Z,12.1
2017-07-17T00:46:56.268Z,10.9
2017-07-17T00:49:27.994Z,11.2
2017-07-17T00:51:59.748Z,10.4
2017-07-17T00:54:31.501Z,11.5
2017-07-17T00:57:03.299Z,10.7
2017-07-17T00:59:35.047Z,11.3
2017-07-17T01:02:06.797Z,11.4
2017-07-17T01:04:38.535Z,10.7
2017-07-17T01:07:10.273Z,10.9
2017-07-17T01:09:41.989Z,11.8
2017-07-17T01:12:13.745Z,11.4
2017-07-17T01:14:45.502Z,11.4
2017-07-17T01:17:17.221Z,10.7
2017-07-17T01:19:48.967Z,10.9
2017-07-17T01:22:20.729Z,11.4
2017-07-17T01:24:52.457Z,11.6
2017-07-17T01:27:24.222Z,11.6
2017-07-17T01:29:55.955Z,11.6
2017-07-17T01:32:27.720Z,11.4
2017-07-17T01:34:59.451Z,11.7
2017-07-17T01:37:31.236Z,11.5
2017-07-17T01:40:02.959Z,11.3
2017-07-17T01:42:34.709Z,11.1
2017-07-17T01:45:06.431Z,11.6
2017-07-17T01:47:38.188Z,11.9
2017-07-17T01:50:09.906Z,10.9
2017-07-17T01:52:41.660Z,11.1
2017-07-17T01:55:13.371Z,11.5
2017-07-17T01:57:45.116Z,11.2
2017-07-17T02:00:16.838Z,11.3
2017-07-17T02:02:48.594Z,10.8
2017-07-17T02:05:20.309Z,11.2
2017-07-17T02:07:52.055Z,10.9
2017-07-17T02:10:23.773Z,11.7
2017-07-17T02:12:55.524Z,10.6
2017-07-17T02:15:27.231Z,10.8
2017-07-17T02:17:59.009Z,11.5
2017-07-17T02:20:30.754Z,10.9
2017-07-17T02:23:02.539Z,10.8
2017-07-17T02:25:34.278Z,10.7
2017-07-17T02:28:06.059Z,10.8
2017-07-17T02:30:37.823Z,11.3
2017-07-17T02:33:09.593Z,11.2
2017-07-17T02:35:41.346Z,11.3
2017-07-17T02:38:13.105Z,10.6
2017-07-17T02:40:44.836Z,10.4
2017-07-17T02:43:16.613Z,10.4
2017-07-17T02:45:48.369Z,11.3
2017-07-17T02:48:20.149Z,11.6
2017-07-17T02:50:51.889Z,10.8
2017-07-17T02:53:23.687Z,11.3
2017-07-17T02:55:55.443Z,10.4
2017-07-17T02:58:27.213Z,11.4
2017-07-17T03:00:58.940Z,12.2
2017-07-17T03:03:30.687Z,11.5
2017-07-17T03:06:02.429Z,10.9
2017-07-17T03:08:34.194Z,10.8
2017-07-17T03:11:05.926Z,11.3
2017-07-17T03:13:37.820Z,11.4
2017-07-17T03:16:09.533Z,10.8
2017-07-17T03:18:41.318Z,11.4
2017-07-17T03:21:13.029Z,11.8
2017-07-17T03:23:44.795Z,11.4
2017-07-17T03:26:16.520Z,11.6
2017-07-17T03:28:48.279Z,10.4
2017-07-17T03:31:20.005Z,11.8
2017-07-17T03:33:51.751Z,10.8
2017-07-17T03:36:23.475Z,11.8
2017-07-17T03:38:55.220Z,11.3
2017-07-17T03:41:26.951Z,11.4
2017-07-17T03:43:58.718Z,10.4
2017-07-17T03:46:30.437Z,11.4
2017-07-17T03:49:02.186Z,11.5
2017-07-17T03:51:33.915Z,10.6
2017-07-17T03:54:05.669Z,11.6
2017-07-17T03:56:37.400Z,11.5
2017-07-17T03:59:09.155Z,11.5
2017-07-17T04:01:40.866Z,11.8
2017-07-17T04:04:12.683Z,11.0
2017-07-17T04:06:44.470Z,11.2
2017-07-17T04:09:16.259Z,11.5
2017-07-17T04:11:48.026Z,11.4
2017-07-17T04:14:19.785Z,10.8
2017-07-17T04:16:51.506Z,10.9
2017-07-17T04:19:23.370Z,11.0
2017-07-17T04:21:55.113Z,11.9
2017-07-17T04:24:26.882Z,10.1
2017-07-17T04:27:00.302Z,10.6
2017-07-17T04:29:32.043Z,13.0
2017-07-17T04:32:03.776Z,15.2
2017-07-17T04:34:35.542Z,16.0
2017-07-17T04:37:07.290Z,16.5
2017-07-17T04:39:39.059Z,15.9
2017-07-17T04:42:11.893Z,16.4
2017-07-17T04:44:43.732Z,15.8
2017-07-17T04:47:15.464Z,17.4
2017-07-17T04:49:47.223Z,16.6
2017-07-17T04:52:19.022Z,25.3
2017-07-17T04:54:50.943Z,17.0
2017-07-17T04:57:22.649Z,16.1
2017-07-17T04:59:54.412Z,16.1
2017-07-17T05:02:26.175Z,16.3
2017-07-17T05:04:57.946Z,15.3
2017-07-17T05:07:29.671Z,15.8
2017-07-17T05:10:01.451Z,15.4
2017-07-17T05:12:33.364Z,16.8
2017-07-17T05:15:05.102Z,16.7
2017-07-17T05:17:36.829Z,16.9
2017-07-17T05:20:09.220Z,18.1
2017-07-17T05:22:41.116Z,16.8
2017-07-17T05:25:13.109Z,18.6
2017-07-17T05:27:44.849Z,17.3
2017-07-17T05:30:18.087Z,17.6
2017-07-17T05:32:50.486Z,18.3
2017-07-17T05:35:23.411Z,18.4
2017-07-17T05:37:55.123Z,17.7
2017-07-17T05:40:26.895Z,17.7
2017-07-17T05:42:58.623Z,17.1
2017-07-17T05:45:30.382Z,17.4
2017-07-17T05:48:02.121Z,15.9
2017-07-17T05:50:33.888Z,14.9
2017-07-17T05:53:06.487Z,14.8
2017-07-17T05:55:38.260Z,14.7
2017-07-17T05:58:09.988Z,14.7
2017-07-17T06:00:42.911Z,12.9
2017-07-17T06:03:14.695Z,13.3
2017-07-17T06:05:46.445Z,13.4
2017-07-17T06:08:18.154Z,13.2
2017-07-17T06:10:49.896Z,13.2
2017-07-17T06:13:21.598Z,13.6
2017-07-17T06:15:53.325Z,13.0
2017-07-17T06:18:25.057Z,13.5
2017-07-17T06:20:56.764Z,13.1
2017-07-17T06:23:28.475Z,13.3
2017-07-17T06:26:00.218Z,13.7
2017-07-17T06:28:31.912Z,14.0
2017-07-17T06:31:03.637Z,13.6
2017-07-17T06:33:35.335Z,13.4
2017-07-17T06:36:07.066Z,13.2
2017-07-17T06:38:38.819Z,13.5
2017-07-17T06:41:10.600Z,13.6
2017-07-17T06:43:42.414Z,12.8
2017-07-17T06:46:14.201Z,12.9
2017-07-17T06:48:45.965Z,11.8
2017-07-17T06:51:17.732Z,12.4
2017-07-17T06:53:49.500Z,11.9
2017-07-17T06:56:21.255Z,11.9
2017-07-17T06:58:53.021Z,11.5
2017-07-17T07:01:24.782Z,11.7
2017-07-17T07:03:56.521Z,12.0
2017-07-17T07:06:28.316Z,11.8
2017-07-17T07:09:00.007Z,11.8
2017-07-17T07:11:31.769Z,12.3
2017-07-17T07:14:03.468Z,12.0
2017-07-17T07:16:35.215Z,10.9
2017-07-17T07:19:06.915Z,10.2
2017-07-17T07:21:38.676Z,10.6
2017-07-17T07:24:10.395Z,11.3
2017-07-17T07:26:42.194Z,10.2
2017-07-17T07:29:13.874Z,10.3
2017-07-17T07:31:45.662Z,9.8
2017-07-17T07:34:17.388Z,9.7
2017-07-17T07:36:49.141Z,10.3
2017-07-17T07:39:20.865Z,9.4
2017-07-17T07:41:52.616Z,9.3
2017-07-17T07:44:24.329Z,8.7
2017-07-17T07:46:56.087Z,8.7
2017-07-17T07:49:27.797Z,8.3
2017-07-17T07:51:59.640Z,8.9
2017-07-17T07:54:31.361Z,8.5
2017-07-17T07:57:03.127Z,9.2
2017-07-17T07:59:34.842Z,8.6
2017-07-17T08:02:06.607Z,8.3
2017-07-17T08:04:38.419Z,8.6
2017-07-17T08:07:10.171Z,8.3
2017-07-17T08:09:41.905Z,8.5
2017-07-17T08:12:13.658Z,8.4
2017-07-17T08:14:45.386Z,7.8
2017-07-17T08:17:17.178Z,8.1
2017-07-17T08:19:48.911Z,8.3
2017-07-17T08:22:20.659Z,7.9
2017-07-17T08:24:52.366Z,7.7
2017-07-17T08:27:24.114Z,7.6
2017-07-17T08:29:55.843Z,7.5
2017-07-17T08:32:27.601Z,7.0
2017-07-17T08:34:59.333Z,7.5
2017-07-17T08:37:31.097Z,7.4
2017-07-17T08:40:02.803Z,6.9
2017-07-17T08:42:34.544Z,7.1
2017-07-17T08:45:06.243Z,6.7
2017-07-17T08:47:37.976Z,7.0
2017-07-17T08:50:09.684Z,7.3
2017-07-17T08:52:41.430Z,6.6
2017-07-17T08:55:13.168Z,7.0
2017-07-17T08:57:44.915Z,6.8
2017-07-17T09:00:16.636Z,7.1
2017-07-17T09:02:48.413Z,6.6
2017-07-17T09:05:20.149Z,7.0
2017-07-17T09:07:51.908Z,6.4
2017-07-17T09:10:23.610Z,6.2
2017-07-17T09:12:55.355Z,6.4
2017-07-17T09:15:27.049Z,5.6
2017-07-17T09:17:58.779Z,6.1
2017-07-17T09:20:30.493Z,6.2
2017-07-17T09:23:02.226Z,6.0
2017-07-17T09:25:33.930Z,6.3
2017-07-17T09:28:05.674Z,6.2
2017-07-17T09:30:37.378Z,6.2
2017-07-17T09:33:09.130Z,5.9
2017-07-17T09:35:40.831Z,5.7
2017-07-17T09:38:12.569Z,5.7
2017-07-17T09:40:44.397Z,6.0
2017-07-17T09:43:16.182Z,5.7
2017-07-17T09:45:47.959Z,6.0
2017-07-17T09:48:19.700Z,6.1
2017-07-17T09:50:52.098Z,5.6
2017-07-17T09:53:23.913Z,5.4
2017-07-17T09:55:55.617Z,5.6
2017-07-17T09:58:27.356Z,5.9
2017-07-17T10:00:59.078Z,5.7
2017-07-17T10:03:30.827Z,5.6
2017-07-17T10:06:02.555Z,5.3
2017-07-17T10:08:34.330Z,5.8
2017-07-17T10:11:06.119Z,5.0
2017-07-17T10:13:38.577Z,5.5
2017-07-17T10:16:10.389Z,5.6
2017-07-17T10:18:42.176Z,5.3
2017-07-17T10:21:13.937Z,5.2
2017-07-17T10:23:45.743Z,5.3
2017-07-17T10:26:17.481Z,5.0
2017-07-17T10:28:49.298Z,5.0
2017-07-17T10:31:21.014Z,4.5
2017-07-17T10:33:52.758Z,5.1
2017-07-17T10:36:24.479Z,4.9
2017-07-17T10:38:56.215Z,4.7
2017-07-17T10:41:27.912Z,4.9
2017-07-17T10:43:59.697Z,4.9
2017-07-17T10:46:31.367Z,5.0
2017-07-17T10:49:03.100Z,4.9
2017-07-17T10:51:34.823Z,4.8
2017-07-17T10:54:06.588Z,4.8
2017-07-17T10:56:38.316Z,4.9
2017-07-17T10:59:10.091Z,5.0
2017-07-17T11:01:41.825Z,4.9
2017-07-17T11:04:13.606Z,4.8
2017-07-17T11:06:45.346Z,4.5
2017-07-17T11:09:17.152Z,4.1
2017-07-17T11:11:48.855Z,4.3
2017-07-17T11:14:20.863Z,5.0
2017-07-17T11:16:52.581Z,4.3
2017-07-17T11:19:24.315Z,4.7
2017-07-17T11:21:56.029Z,4.3
2017-07-17T11:24:27.766Z,4.2
2017-07-17T11:26:59.464Z,4.5
2017-07-17T11:29:31.206Z,4.2
2017-07-17T11:32:02.916Z,4.4
2017-07-17T11:34:34.642Z,4.7
2017-07-17T11:37:06.343Z,4.4
2017-07-17T11:39:38.085Z,4.5
2017-07-17T11:42:09.812Z,4.3
2017-07-17T11:44:41.567Z,4.0
2017-07-17T11:56:29.089Z,4.4
2017-07-17T11:59:00.798Z,3.9
2017-07-17T12:01:32.551Z,4.0
2017-07-17T12:04:04.276Z,4.1
2017-07-17T12:06:36.024Z,4.5
2017-07-17T12:09:07.751Z,4.2
2017-07-17T12:11:39.532Z,4.2
2017-07-17T12:14:11.267Z,4.5
2017-07-17T12:16:43.040Z,4.1
2017-07-17T12:19:14.761Z,4.3
2017-07-17T12:21:46.536Z,4.6
2017-07-17T12:24:18.277Z,4.0
2017-07-17T12:26:50.050Z,4.0
2017-07-17T12:29:21.753Z,3.8
2017-07-17T12:31:53.503Z,4.0
2017-07-17T12:34:25.221Z,4.3
2017-07-17T12:36:56.996Z,4.1
2017-07-17T12:39:28.725Z,3.9
2017-07-17T12:42:00.490Z,4.2
2017-07-17T12:44:32.214Z,4.2
2017-07-17T12:47:04.018Z,3.9
2017-07-17T12:49:35.773Z,3.8
2017-07-17T12:52:07.556Z,4.0
2017-07-17T12:54:39.334Z,4.1
2017-07-17T12:57:11.069Z,4.1
2017-07-17T12:59:42.771Z,4.3
2017-07-17T13:02:14.490Z,4.1
2017-07-17T13:04:46.188Z,3.8
2017-07-17T13:07:17.914Z,4.0
2017-07-17T13:09:49.615Z,3.8
2017-07-17T13:12:21.373Z,3.7
2017-07-17T13:14:53.080Z,3.7
2017-07-17T13:17:24.831Z,3.7
2017-07-17T13:19:56.554Z,3.6
2017-07-17T13:22:28.318Z,3.6
2017-07-17T13:25:00.799Z,3.6
2017-07-17T13:27:32.543Z,3.6
2017-07-17T13:30:04.243Z,3.6
2017-07-17T13:32:35.976Z,4.1
2017-07-17T13:35:07.670Z,3.5
2017-07-17T13:37:39.396Z,3.2
2017-07-17T13:40:11.095Z,3.5
2017-07-17T13:42:42.895Z,3.4
2017-07-17T13:45:14.627Z,3.6
2017-07-17T13:47:46.369Z,4.3
2017-07-17T13:50:19.126Z,4.7
2017-07-17T13:52:50.893Z,4.6
2017-07-17T13:55:22.755Z,4.7
2017-07-17T13:57:55.026Z,5.0
2017-07-17T14:00:27.796Z,4.8
2017-07-17T14:03:01.525Z,4.7
2017-07-17T14:05:33.274Z,4.8
2017-07-17T14:08:07.198Z,5.0
2017-07-17T14:10:38.944Z,5.4
2017-07-17T14:13:10.966Z,10.7
2017-07-17T14:15:47.100Z,15.7
2017-07-17T14:18:18.886Z,14.9
2017-07-17T14:20:50.640Z,6.1
2017-07-17T14:23:22.391Z,7.4
2017-07-17T14:25:54.120Z,7.2
2017-07-17T14:28:25.907Z,5.1
2017-07-17T14:30:57.638Z,4.9
2017-07-17T14:33:29.396Z,4.1
2017-07-17T14:36:01.176Z,4.4
2017-07-17T14:38:32.961Z,3.9
2017-07-17T14:41:04.691Z,3.7
2017-07-17T14:43:36.457Z,3.7
2017-07-17T14:46:08.173Z,3.3
2017-07-17T14:48:39.950Z,3.2
2017-07-17T14:51:11.749Z,3.6
2017-07-17T14:53:43.487Z,3.8
2017-07-17T14:56:15.207Z,3.0
2017-07-17T14:58:46.974Z,3.3
2017-07-17T15:01:18.717Z,3.3
2017-07-17T15:03:50.497Z,3.1
2017-07-17T15:06:22.228Z,3.3
2017-07-17T15:08:53.976Z,3.1
2017-07-17T15:11:25.690Z,5.0
2017-07-17T15:13:57.459Z,4.5
2017-07-17T15:16:29.217Z,4.6
2017-07-17T15:19:00.985Z,4.2
2017-07-17T15:21:32.718Z,3.9
2017-07-17T15:24:06.521Z,3.9
2017-07-17T15:26:40.421Z,3.7
2017-07-17T15:29:14.411Z,3.2
2017-07-17T15:31:48.425Z,3.4
2017-07-17T15:34:22.387Z,3.1
2017-07-17T15:36:56.307Z,3.0
2017-07-17T15:39:30.650Z,3.1
2017-07-17T15:42:04.870Z,3.4
2017-07-17T15:44:40.206Z,3.1
2017-07-17T15:47:14.426Z,2.9
2017-07-17T15:49:50.169Z,3.0
2017-07-17T15:52:25.753Z,3.0
2017-07-17T15:55:01.328Z,2.7
2017-07-17T15:57:36.905Z,2.8
2017-07-17T16:00:12.584Z,2.4
2017-07-17T16:02:48.345Z,2.8
2017-07-17T16:05:24.036Z,2.2
2017-07-17T16:07:59.656Z,2.9
2017-07-17T16:10:35.073Z,2.6
2017-07-17T16:13:07.469Z,2.6
2017-07-17T16:15:40.205Z,2.9
2017-07-17T16:18:13.640Z,2.5
2017-07-17T16:20:46.101Z,2.8
2017-07-17T16:23:18.465Z,2.7
2017-07-17T16:25:50.900Z,3.0
2017-07-17T16:28:23.272Z,2.9
2017-07-17T16:30:55.690Z,2.6
2017-07-17T16:33:28.045Z,2.7
2017-07-17T16:36:00.502Z,2.7
2017-07-17T16:38:32.896Z,2.8
2017-07-17T16:41:05.306Z,3.1
2017-07-17T16:43:37.651Z,2.5
2017-07-17T16:46:11.243Z,4.2
2017-07-17T16:48:43.679Z,4.5
2017-07-17T16:51:16.084Z,7.5
2017-07-17T16:53:48.439Z,7.6
2017-07-17T16:56:20.876Z,6.0
2017-07-17T16:58:53.290Z,4.7
2017-07-17T17:01:25.714Z,3.4
2017-07-17T17:03:58.062Z,3.7
2017-07-17T17:06:30.513Z,3.1
2017-07-17T17:09:03.054Z,2.7
2017-07-17T17:11:36.978Z,3.4
2017-07-17T17:14:08.586Z,3.4
2017-07-17T17:16:40.336Z,2.9
2017-07-17T17:19:12.045Z,2.9
2017-07-17T17:21:44.423Z,3.0
2017-07-17T17:24:16.128Z,2.9
2017-07-17T17:26:47.907Z,2.6
2017-07-17T17:29:27.975Z,2.7
2017-07-17T17:32:03.586Z,2.7
2017-07-17T17:34:40.202Z,2.6
2017-07-17T17:37:16.866Z,2.2
2017-07-17T17:39:54.488Z,2.4
2017-07-17T17:42:32.980Z,2.1
2017-07-17T17:45:09.839Z,2.0
2017-07-17T17:47:50.742Z,2.4
2017-07-17T17:50:28.189Z,2.0
2017-07-17T17:53:07.475Z,2.0
2017-07-17T17:55:45.640Z,2.2
2017-07-17T17:58:23.889Z,2.0
2017-07-17T18:01:02.262Z,2.0
2017-07-17T18:03:41.711Z,1.9
2017-07-17T18:06:18.866Z,1.3
2017-07-17T18:08:57.178Z,1.6
2017-07-17T18:11:35.359Z,1.7
2017-07-17T18:14:06.953Z,1.5
2017-07-17T18:16:38.662Z,1.4
2017-07-17T18:19:10.632Z,1.4
2017-07-17T18:21:42.491Z,1.4
2017-07-17T18:24:14.474Z,1.4
2017-07-17T18:26:46.410Z,1.5
2017-07-17T18:29:18.194Z,1.5
2017-07-17T18:31:52.793Z,1.3
2017-07-17T18:34:25.692Z,1.4
2017-07-17T18:36:58.500Z,1.4
2017-07-17T18:39:31.453Z,1.2
2017-07-17T18:42:03.237Z,1.5
2017-07-17T18:44:35.084Z,1.4
2017-07-17T18:47:07.436Z,1.7
2017-07-17T18:49:39.702Z,1.2
2017-07-17T18:52:12.528Z,1.6
2017-07-17T18:54:44.535Z,1.6
2017-07-17T18:57:16.488Z,1.2
2017-07-17T18:59:48.805Z,1.5
2017-07-17T19:02:20.566Z,1.6
2017-07-17T19:04:52.323Z,1.5
2017-07-17T19:07:24.034Z,1.5
2017-07-17T19:09:55.779Z,1.7
2017-07-17T19:12:27.504Z,1.5
2017-07-17T19:14:58.633Z,2.60
2017-07-17T19:14:59.593Z,1.5
2017-07-17T19:17:26.880Z,2.10
2017-07-17T19:17:31.316Z,1.6
2017-07-17T19:19:55.084Z,2.90
2017-07-17T19:20:06.593Z,1.8
2017-07-17T19:22:23.638Z,2.40
2017-07-17T19:22:38.961Z,1.6
2017-07-17T19:24:51.843Z,2.50
2017-07-17T19:25:10.727Z,2.1
2017-07-17T19:27:21.057Z,4.10
2017-07-17T19:27:42.450Z,2.1
2017-07-17T19:29:49.322Z,2.57
2017-07-17T19:30:14.242Z,1.7
2017-07-17T19:32:17.574Z,2.53
2017-07-17T19:32:45.980Z,1.7
2017-07-17T19:34:45.942Z,2.80
2017-07-17T19:35:17.742Z,1.7
2017-07-17T19:37:14.186Z,2.70
2017-07-17T19:37:49.481Z,2.0
2017-07-17T19:39:42.532Z,3.00
2017-07-17T19:40:21.234Z,1.7
2017-07-17T19:42:11.829Z,2.33
2017-07-17T19:42:52.943Z,2.1
2017-07-17T19:44:40.843Z,2.30
2017-07-17T19:45:24.695Z,2.1
2017-07-17T19:47:09.074Z,2.27
2017-07-17T19:47:56.438Z,1.9
2017-07-17T19:49:37.295Z,2.80
2017-07-17T19:50:28.209Z,1.9
2017-07-17T19:52:05.523Z,2.73
2017-07-17T19:52:59.994Z,2.1
2017-07-17T19:54:33.753Z,2.77
2017-07-17T19:55:31.724Z,1.7
2017-07-17T19:57:02.086Z,2.60
2017-07-17T19:58:03.730Z,1.6
2017-07-17T19:59:30.313Z,2.90
2017-07-17T20:00:35.523Z,1.5
2017-07-17T20:01:58.554Z,2.60
2017-07-17T20:03:07.412Z,1.5
2017-07-17T20:04:26.950Z,2.80
2017-07-17T20:05:39.147Z,1.5
2017-07-17T20:06:56.148Z,2.77
2017-07-17T20:08:10.846Z,1.9
2017-07-17T20:09:24.420Z,2.80
2017-07-17T20:10:42.576Z,1.4
2017-07-17T20:11:53.236Z,2.60
2017-07-17T20:13:14.281Z,1.7
2017-07-17T20:14:21.470Z,2.43
2017-07-17T20:15:46.027Z,1.6
2017-07-17T20:16:49.668Z,2.33
2017-07-17T20:18:17.726Z,1.8
2017-07-17T20:19:17.972Z,2.57
2017-07-17T20:20:49.515Z,1.7
2017-07-17T20:21:46.214Z,2.37
2017-07-17T20:23:21.221Z,1.7
2017-07-17T20:24:14.493Z,2.53
2017-07-17T20:25:53.019Z,1.7
2017-07-17T20:26:42.910Z,2.10
2017-07-17T20:28:24.707Z,1.9
2017-07-17T20:29:11.370Z,2.17
2017-07-17T20:30:56.451Z,1.6
2017-07-17T20:31:40.370Z,2.30
2017-07-17T20:33:28.198Z,1.7
2017-07-17T20:34:08.746Z,2.50
2017-07-17T20:35:59.953Z,1.5
2017-07-17T20:36:37.043Z,3.27
2017-07-17T20:38:31.668Z,1.7
2017-07-17T20:39:05.290Z,2.50
2017-07-17T20:41:03.474Z,1.7
2017-07-17T20:41:33.519Z,2.30
2017-07-17T20:43:35.173Z,1.6
2017-07-17T20:44:01.875Z,1.83
2017-07-17T20:46:07.019Z,1.6
2017-07-17T20:46:30.083Z,2.20
2017-07-17T20:48:39.139Z,2.0
2017-07-17T20:48:58.582Z,2.50
2017-07-17T20:51:10.924Z,1.8
2017-07-17T20:51:26.820Z,2.30
2017-07-17T20:53:42.635Z,1.9
2017-07-17T20:53:55.078Z,2.00
2017-07-17T20:56:14.419Z,1.3
2017-07-17T20:56:23.306Z,2.27
2017-07-17T20:58:46.135Z,1.5
2017-07-17T20:58:51.718Z,2.27
2017-07-17T21:01:19.887Z,1.5
2017-07-17T21:01:20.695Z,3.57
2017-07-17T21:03:48.949Z,2.87
2017-07-17T21:03:51.634Z,1.8
2017-07-17T21:06:17.201Z,1.93
2017-07-17T21:06:23.384Z,1.6
2017-07-17T21:08:45.992Z,2.43
2017-07-17T21:08:55.246Z,1.7
2017-07-17T21:11:15.105Z,2.60
2017-07-17T21:11:26.980Z,1.8
2017-07-17T21:13:43.339Z,3.07
2017-07-17T21:13:58.730Z,1.4
2017-07-17T21:16:11.567Z,1.80
2017-07-17T21:16:30.503Z,1.2
2017-07-17T21:18:39.925Z,1.80
2017-07-17T21:19:02.200Z,1.6
2017-07-17T21:21:08.178Z,2.47
2017-07-17T21:21:33.938Z,1.5
2017-07-17T21:23:36.451Z,2.83
2017-07-17T21:24:05.632Z,1.8
2017-07-17T21:26:04.687Z,2.40
2017-07-17T21:26:37.438Z,1.4
2017-07-17T21:28:32.917Z,2.40
2017-07-17T21:29:10.310Z,1.6
2017-07-17T21:31:01.160Z,2.50
2017-07-17T21:31:42.109Z,1.6
2017-07-17T21:33:29.563Z,1.90
2017-07-17T21:34:13.812Z,1.2
2017-07-17T21:35:57.779Z,2.00
2017-07-17T21:36:45.543Z,1.6
2017-07-17T21:38:26.033Z,2.33
2017-07-17T21:39:17.260Z,1.4
2017-07-17T21:40:54.303Z,2.60
2017-07-17T21:41:48.983Z,1.4
2017-07-17T21:43:22.885Z,2.43
2017-07-17T21:44:20.678Z,1.5
2017-07-17T21:45:51.140Z,4.10
2017-07-17T21:46:52.452Z,1.2
2017-07-17T21:48:20.119Z,3.27
2017-07-17T21:49:24.185Z,1.2
2017-07-17T21:50:48.461Z,2.27
2017-07-17T21:51:55.920Z,1.3
2017-07-17T21:53:16.661Z,2.67
2017-07-17T21:54:27.620Z,1.6
2017-07-17T21:55:44.894Z,2.50
2017-07-17T21:56:59.361Z,1.6
2017-07-17T21:58:13.319Z,3.77
2017-07-17T21:59:31.067Z,1.3
2017-07-17T22:00:41.522Z,2.60
2017-07-17T22:02:02.824Z,1.4
2017-07-17T22:03:09.762Z,2.53
2017-07-17T22:04:34.590Z,1.8
2017-07-17T22:05:37.985Z,2.63
2017-07-17T22:07:06.337Z,1.3
2017-07-17T22:08:06.967Z,2.27
2017-07-17T22:09:38.056Z,1.5
2017-07-17T22:10:35.185Z,2.50
2017-07-17T22:12:09.809Z,1.6
2017-07-17T22:13:03.436Z,2.80
2017-07-17T22:14:41.502Z,1.3
2017-07-17T22:15:31.713Z,2.73
2017-07-17T22:17:13.232Z,1.2
2017-07-17T22:17:59.965Z,2.63
2017-07-17T22:19:44.936Z,1.5
2017-07-17T22:20:28.316Z,2.30
2017-07-17T22:22:16.682Z,1.2
2017-07-17T22:22:56.525Z,2.10
2017-07-17T22:24:48.381Z,1.2
2017-07-17T22:25:24.777Z,2.17
2017-07-17T22:27:20.115Z,1.3
2017-07-17T22:27:53.105Z,2.33
2017-07-17T22:29:51.822Z,1.4
2017-07-17T22:30:21.320Z,2.57
2017-07-17T22:32:23.584Z,1.4
2017-07-17T22:32:49.557Z,2.53
2017-07-17T22:34:55.280Z,1.6
2017-07-17T22:35:17.777Z,2.30
2017-07-17T22:37:27.018Z,1.5
2017-07-17T22:37:46.003Z,3.20
2017-07-17T22:39:58.716Z,1.4
2017-07-17T22:40:14.221Z,2.47
2017-07-17T22:42:30.446Z,1.4
2017-07-17T22:42:42.450Z,2.90
2017-07-17T22:45:02.145Z,1.4
2017-07-17T22:45:11.309Z,2.67
2017-07-17T22:47:33.871Z,1.4
2017-07-17T22:47:39.529Z,2.57
2017-07-17T22:50:05.568Z,1.5
2017-07-17T22:50:07.761Z,2.80
2017-07-17T22:52:36.024Z,2.80
2017-07-17T22:52:37.310Z,1.4
2017-07-17T22:55:04.261Z,2.30
2017-07-17T22:55:08.971Z,1.1
2017-07-17T22:57:33.277Z,2.87
2017-07-17T22:57:40.708Z,1.3
2017-07-17T23:00:01.567Z,2.40
2017-07-17T23:00:12.431Z,1.6
2017-07-17T23:02:29.774Z,2.67
2017-07-17T23:02:44.181Z,1.4
2017-07-17T23:04:58.001Z,2.70
2017-07-17T23:05:15.908Z,1.6
2017-07-17T23:07:26.301Z,2.50
2017-07-17T23:07:47.657Z,1.4
2017-07-17T23:09:54.515Z,2.50
2017-07-17T23:10:19.374Z,1.3
2017-07-17T23:12:22.755Z,2.70
2017-07-17T23:12:51.133Z,1.5
2017-07-17T23:14:50.954Z,2.83
2017-07-17T23:15:22.883Z,1.6
2017-07-17T23:17:19.170Z,2.70
2017-07-17T23:17:54.636Z,1.3
2017-07-17T23:19:47.416Z,3.20
2017-07-17T23:20:26.366Z,1.2
2017-07-17T23:22:15.730Z,2.63
2017-07-17T23:22:58.128Z,1.4
2017-07-17T23:24:43.975Z,2.60
2017-07-17T23:25:29.862Z,1.7
2017-07-17T23:27:12.182Z,2.63
2017-07-17T23:28:01.618Z,1.6
2017-07-17T23:29:40.451Z,2.50
2017-07-17T23:30:33.353Z,1.3
2017-07-17T23:32:09.122Z,2.60
2017-07-17T23:33:05.115Z,1.6
2017-07-17T23:34:37.359Z,2.60
2017-07-17T23:35:36.823Z,1.2
2017-07-17T23:37:05.573Z,2.53
2017-07-17T23:38:08.583Z,1.3
2017-07-17T23:39:33.794Z,2.97
2017-07-17T23:40:40.305Z,1.4
2017-07-17T23:42:02.018Z,3.03
2017-07-17T23:43:12.047Z,1.2
2017-07-17T23:44:30.225Z,3.30
2017-07-17T23:45:43.782Z,1.5
2017-07-17T23:46:58.571Z,2.13
2017-07-17T23:48:15.554Z,1.2
2017-07-17T23:49:26.792Z,2.43
2017-07-17T23:50:47.264Z,1.4
2017-07-17T23:51:55.000Z,2.60
2017-07-17T23:53:19.010Z,1.5
2017-07-17T23:54:23.250Z,2.33
2017-07-17T23:55:50.754Z,1.1
2017-07-17T23:56:51.525Z,3.13
2017-07-17T23:58:22.528Z,1.2
2017-07-17T23:59:19.766Z,2.73
